createdAt,value
2017-03-01T00:00:39.400Z,17.49
2017-03-01T00:01:20.243Z,17.55
2017-03-01T00:02:00.987Z,17.51
2017-03-01T00:02:41.698Z,17.49
2017-03-01T00:03:22.535Z,17.51
2017-03-01T00:04:03.411Z,17.54
2017-03-01T00:04:44.246Z,17.54
2017-03-01T00:05:24.916Z,17.51
2017-03-01T00:06:05.711Z,17.51
2017-03-01T00:06:53.130Z,17.49
2017-03-01T00:07:34.607Z,17.56
2017-03-01T00:08:15.400Z,17.51
2017-03-01T00:08:56.058Z,17.48
2017-03-01T00:09:36.825Z,17.49
2017-03-01T00:10:17.649Z,17.52
2017-03-01T00:10:58.398Z,17.51
2017-03-01T00:11:39.180Z,17.46
2017-03-01T00:12:19.986Z,17.48
2017-03-01T00:13:00.753Z,17.46
2017-03-01T00:13:41.481Z,17.49
2017-03-01T00:14:22.335Z,17.48
2017-03-01T00:15:03.047Z,17.46
2017-03-01T00:15:43.759Z,17.48
2017-03-01T00:16:24.594Z,17.52
2017-03-01T00:17:06.352Z,17.58
2017-03-01T00:17:46.152Z,17.56
2017-03-01T00:18:26.900Z,17.64
2017-03-01T00:19:07.680Z,17.64
2017-03-01T00:19:48.442Z,17.64
2017-03-01T00:20:29.906Z,17.62
2017-03-01T00:21:10.687Z,17.66
2017-03-01T00:21:51.458Z,17.71
2017-03-01T00:22:32.214Z,17.63
2017-03-01T00:23:13.849Z,17.66
2017-03-01T00:23:53.735Z,17.66
2017-03-01T00:24:34.460Z,17.64
2017-03-01T00:25:15.252Z,17.63
2017-03-01T00:25:56.049Z,17.63
2017-03-01T00:26:36.850Z,17.64
2017-03-01T00:27:17.648Z,17.59
2017-03-01T00:27:58.403Z,17.68
2017-03-01T00:28:39.237Z,17.66
2017-03-01T00:29:20.050Z,17.56
2017-03-01T00:30:00.862Z,17.54
2017-03-01T00:33:44.175Z,17.59
2017-03-01T00:34:24.982Z,17.64
2017-03-01T00:35:05.727Z,17.48
2017-03-01T00:35:46.433Z,17.51
2017-03-01T00:36:27.229Z,17.52
2017-03-01T00:37:08.085Z,17.46
2017-03-01T00:37:48.810Z,17.51
2017-03-01T00:38:29.536Z,17.58
2017-03-01T00:39:10.230Z,17.58
2017-03-01T00:39:50.993Z,17.55
2017-03-01T00:40:31.781Z,17.58
2017-03-01T00:41:12.582Z,17.52
2017-03-01T00:41:53.402Z,17.54
2017-03-01T00:42:34.189Z,17.49
2017-03-01T00:43:14.917Z,17.51
2017-03-01T00:43:55.609Z,17.44
2017-03-01T00:44:36.369Z,17.52
2017-03-01T00:45:17.125Z,17.52
2017-03-01T00:45:57.950Z,17.49
2017-03-01T00:46:38.773Z,17.51
2017-03-01T00:47:19.452Z,17.51
2017-03-01T00:48:00.191Z,17.52
2017-03-01T00:50:16.531Z,17.51
2017-03-01T00:50:57.328Z,17.49
2017-03-01T00:51:38.167Z,17.49
2017-03-01T00:52:18.948Z,17.51
2017-03-01T00:52:59.666Z,17.46
2017-03-01T00:53:40.375Z,17.54
2017-03-01T00:54:21.176Z,17.51
2017-03-01T00:55:01.915Z,17.51
2017-03-01T00:55:43.509Z,17.51
2017-03-01T00:56:23.441Z,17.49
2017-03-01T00:57:04.188Z,17.51
2017-03-01T00:57:44.956Z,17.48
2017-03-01T00:58:26.505Z,17.48
2017-03-01T00:59:06.434Z,17.52
2017-03-01T00:59:47.152Z,17.44
2017-03-01T01:00:27.917Z,17.44
2017-03-01T01:01:08.633Z,17.51
2017-03-01T01:01:49.456Z,17.52
2017-03-01T01:02:30.221Z,17.48
2017-03-01T01:03:11.045Z,17.49
2017-03-01T01:03:51.744Z,17.43
2017-03-01T01:04:32.572Z,17.52
2017-03-01T01:05:13.314Z,17.52
2017-03-01T01:05:54.057Z,17.51
2017-03-01T01:06:34.794Z,17.51
2017-03-01T01:07:15.545Z,17.51
2017-03-01T01:07:56.307Z,17.54
2017-03-01T01:08:38.019Z,17.51
2017-03-01T01:09:18.792Z,17.4
2017-03-01T01:09:59.556Z,17.52
2017-03-01T01:10:40.279Z,17.54
2017-03-01T01:11:21.060Z,17.48
2017-03-01T01:12:01.853Z,17.4
2017-03-01T01:12:42.598Z,17.55
2017-03-01T01:13:23.354Z,17.43
2017-03-01T01:14:04.668Z,17.46
2017-03-01T01:14:45.418Z,17.41
2017-03-01T01:15:26.779Z,17.4
2017-03-01T01:16:07.530Z,17.41
2017-03-01T01:16:48.349Z,17.49
2017-03-01T01:17:30.014Z,17.51
2017-03-01T01:18:09.981Z,17.4
2017-03-01T01:18:50.693Z,17.51
2017-03-01T01:19:33.924Z,17.44
2017-03-01T01:20:14.674Z,17.36
2017-03-01T01:20:55.437Z,17.46
2017-03-01T01:21:36.230Z,17.44
2017-03-01T01:22:17.029Z,17.46
2017-03-01T01:22:58.516Z,17.46
2017-03-01T01:23:38.501Z,17.4
2017-03-01T01:24:19.345Z,17.54
2017-03-01T01:25:00.144Z,17.41
2017-03-01T01:25:40.954Z,17.36
2017-03-01T01:26:21.667Z,17.4
2017-03-01T01:27:02.375Z,17.58
2017-03-01T01:27:43.153Z,17.37
2017-03-01T01:28:24.713Z,17.46
2017-03-01T01:29:05.465Z,17.36
2017-03-01T01:29:46.198Z,17.4
2017-03-01T01:30:26.963Z,17.48
2017-03-01T01:31:07.731Z,17.37
2017-03-01T01:31:48.436Z,17.44
2017-03-01T01:32:29.133Z,17.41
2017-03-01T01:33:09.912Z,17.41
2017-03-01T01:33:50.629Z,17.4
2017-03-01T01:34:31.465Z,17.58
2017-03-01T01:35:12.227Z,17.43
2017-03-01T01:35:52.994Z,17.37
2017-03-01T01:36:33.720Z,17.4
2017-03-01T01:37:14.493Z,17.4
2017-03-01T01:37:55.226Z,17.4
2017-03-01T01:38:35.903Z,17.43
2017-03-01T01:39:16.617Z,17.43
2017-03-01T01:39:57.456Z,17.4
2017-03-01T01:40:39.033Z,17.36
2017-03-01T01:41:18.908Z,17.46
2017-03-01T01:41:59.628Z,17.4
2017-03-01T01:42:40.436Z,17.37
2017-03-01T01:43:22.040Z,17.41
2017-03-01T01:44:02.026Z,17.34
2017-03-01T01:44:42.777Z,17.43
2017-03-01T01:45:23.596Z,17.36
2017-03-01T01:46:04.256Z,17.37
2017-03-01T01:46:45.001Z,17.37
2017-03-01T01:47:25.760Z,17.43
2017-03-01T01:48:06.637Z,17.46
2017-03-01T01:48:47.403Z,17.4
2017-03-01T01:49:28.189Z,17.41
2017-03-01T01:50:09.012Z,17.46
2017-03-01T01:50:49.812Z,17.41
2017-03-01T01:51:30.555Z,17.44
2017-03-01T01:52:11.228Z,17.43
2017-03-01T01:52:52.824Z,17.44
2017-03-01T01:53:33.575Z,17.38
2017-03-01T01:54:14.319Z,17.4
2017-03-01T01:54:55.051Z,17.41
2017-03-01T01:55:35.793Z,17.43
2017-03-01T01:56:16.553Z,17.46
2017-03-01T01:56:57.346Z,17.51
2017-03-01T01:57:38.144Z,17.37
2017-03-01T01:58:18.807Z,17.41
2017-03-01T01:59:00.237Z,17.49
2017-03-01T01:59:41.009Z,17.34
2017-03-01T02:00:22.747Z,17.4
2017-03-01T02:01:03.462Z,17.38
2017-03-01T02:01:44.211Z,17.38
2017-03-01T02:02:24.969Z,17.41
2017-03-01T02:03:05.777Z,17.44
2017-03-01T02:03:46.477Z,17.38
2017-03-01T02:04:27.229Z,17.43
2017-03-01T02:05:08.057Z,17.44
2017-03-01T02:05:48.794Z,17.37
2017-03-01T02:06:29.579Z,17.37
2017-03-01T02:07:10.320Z,17.41
2017-03-01T02:07:51.130Z,17.46
2017-03-01T02:08:31.973Z,17.4
2017-03-01T02:09:12.709Z,17.49
2017-03-01T02:09:53.474Z,17.46
2017-03-01T02:10:34.220Z,17.43
2017-03-01T02:11:15.006Z,17.44
2017-03-01T02:11:55.769Z,17.4
2017-03-01T02:12:36.493Z,17.37
2017-03-01T02:13:17.243Z,17.44
2017-03-01T02:13:58.036Z,17.49
2017-03-01T02:14:38.774Z,17.43
2017-03-01T02:15:19.537Z,17.4
2017-03-01T02:16:00.305Z,17.43
2017-03-01T02:16:41.033Z,17.37
2017-03-01T02:17:21.759Z,17.46
2017-03-01T02:18:02.513Z,17.44
2017-03-01T02:18:43.236Z,17.4
2017-03-01T02:19:23.992Z,17.4
2017-03-01T02:20:04.729Z,17.33
2017-03-01T02:20:45.485Z,17.46
2017-03-01T02:21:26.284Z,17.43
2017-03-01T02:22:07.049Z,17.37
2017-03-01T02:22:47.891Z,17.43
2017-03-01T02:23:28.678Z,17.41
2017-03-01T02:24:09.411Z,17.43
2017-03-01T02:24:50.231Z,17.48
2017-03-01T02:25:30.944Z,17.37
2017-03-01T02:26:11.664Z,17.41
2017-03-01T02:26:52.497Z,17.43
2017-03-01T02:27:33.332Z,17.44
2017-03-01T02:28:14.161Z,17.37
2017-03-01T02:28:54.830Z,17.41
2017-03-01T02:29:35.571Z,17.38
2017-03-01T02:30:16.360Z,17.44
2017-03-01T02:30:57.176Z,17.43
2017-03-01T02:31:37.995Z,17.41
2017-03-01T02:32:19.240Z,17.44
2017-03-01T02:33:00.040Z,17.48
2017-03-01T02:33:40.781Z,17.43
2017-03-01T02:34:21.531Z,17.37
2017-03-01T02:35:02.431Z,17.46
2017-03-01T02:35:43.121Z,17.38
2017-03-01T02:36:23.863Z,17.41
2017-03-01T02:37:04.609Z,17.4
2017-03-01T02:37:45.374Z,17.43
2017-03-01T02:38:26.132Z,17.36
2017-03-01T02:39:06.942Z,17.37
2017-03-01T02:39:47.746Z,17.4
2017-03-01T02:40:28.447Z,17.41
2017-03-01T02:41:09.257Z,17.48
2017-03-01T02:41:49.980Z,17.43
2017-03-01T02:42:30.868Z,17.43
2017-03-01T02:43:11.603Z,17.49
2017-03-01T02:43:52.396Z,17.48
2017-03-01T02:44:33.145Z,17.37
2017-03-01T02:45:13.963Z,17.46
2017-03-01T02:45:54.700Z,17.46
2017-03-01T02:46:35.458Z,17.44
2017-03-01T02:47:16.169Z,17.33
2017-03-01T02:47:56.934Z,17.36
2017-03-01T02:48:37.654Z,17.38
2017-03-01T02:49:25.230Z,17.33
2017-03-01T02:50:05.908Z,17.43
2017-03-01T02:50:46.687Z,17.44
2017-03-01T02:51:27.458Z,17.46
2017-03-01T02:52:08.215Z,17.48
2017-03-01T02:52:48.962Z,17.43
2017-03-01T02:53:29.765Z,17.48
2017-03-01T02:54:10.449Z,17.46
2017-03-01T02:54:51.250Z,17.41
2017-03-01T02:55:32.045Z,17.34
2017-03-01T02:56:12.781Z,17.36
2017-03-01T02:56:53.569Z,17.43
2017-03-01T02:57:34.285Z,17.43
2017-03-01T02:58:15.035Z,17.49
2017-03-01T02:58:55.796Z,17.49
2017-03-01T02:59:36.587Z,17.31
2017-03-01T03:00:17.300Z,17.37
2017-03-01T03:00:58.076Z,17.51
2017-03-01T03:01:38.749Z,17.36
2017-03-01T03:02:19.514Z,17.37
2017-03-01T03:03:00.246Z,17.51
2017-03-01T03:03:41.033Z,17.48
2017-03-01T03:04:21.811Z,17.38
2017-03-01T03:05:02.603Z,17.36
2017-03-01T03:05:43.361Z,17.4
2017-03-01T03:06:24.097Z,17.44
2017-03-01T03:07:04.819Z,17.46
2017-03-01T03:07:45.580Z,17.49
2017-03-01T03:08:26.364Z,17.37
2017-03-01T03:09:07.141Z,17.46
2017-03-01T03:09:47.889Z,17.44
2017-03-01T03:10:28.631Z,17.46
2017-03-01T03:11:09.381Z,17.36
2017-03-01T03:11:50.174Z,17.33
2017-03-01T03:12:30.928Z,17.38
2017-03-01T03:13:11.691Z,17.46
2017-03-01T03:13:52.453Z,17.4
2017-03-01T03:14:33.216Z,17.36
2017-03-01T03:15:13.967Z,17.46
2017-03-01T03:15:54.719Z,17.46
2017-03-01T03:16:35.475Z,17.44
2017-03-01T03:17:16.219Z,17.44
2017-03-01T03:17:57.567Z,17.48
2017-03-01T03:18:37.851Z,17.44
2017-03-01T03:19:18.618Z,17.44
2017-03-01T03:19:59.321Z,17.43
2017-03-01T03:20:40.122Z,17.43
2017-03-01T03:21:20.873Z,17.49
2017-03-01T03:22:01.637Z,17.36
2017-03-01T03:22:42.324Z,17.48
2017-03-01T03:23:23.096Z,17.51
2017-03-01T03:24:03.897Z,17.46
2017-03-01T03:24:44.683Z,17.46
2017-03-01T03:25:25.446Z,17.44
2017-03-01T03:26:06.190Z,17.43
2017-03-01T03:26:46.979Z,17.46
2017-03-01T03:27:27.831Z,17.49
2017-03-01T03:28:09.458Z,17.51
2017-03-01T03:28:50.235Z,17.36
2017-03-01T03:29:31.015Z,17.43
2017-03-01T03:30:11.716Z,17.44
2017-03-01T03:30:52.431Z,17.43
2017-03-01T03:31:33.152Z,17.46
2017-03-01T03:32:13.895Z,17.36
2017-03-01T03:32:54.701Z,17.36
2017-03-01T03:33:35.428Z,17.49
2017-03-01T03:34:16.233Z,17.33
2017-03-01T03:34:56.978Z,17.37
2017-03-01T03:35:37.685Z,17.48
2017-03-01T03:36:18.389Z,17.4
2017-03-01T03:36:59.180Z,17.41
2017-03-01T03:37:39.965Z,17.46
2017-03-01T03:38:20.735Z,17.48
2017-03-01T03:39:01.497Z,17.34
2017-03-01T03:39:42.200Z,17.44
2017-03-01T03:40:25.713Z,17.31
2017-03-01T03:41:06.531Z,17.38
2017-03-01T03:41:47.403Z,17.41
2017-03-01T03:42:28.077Z,17.31
2017-03-01T03:43:08.829Z,17.36
2017-03-01T03:43:49.564Z,17.49
2017-03-01T03:44:30.316Z,17.49
2017-03-01T03:45:11.128Z,17.48
2017-03-01T03:45:51.864Z,17.44
2017-03-01T03:46:32.558Z,17.43
2017-03-01T03:47:13.257Z,17.49
2017-03-01T03:47:53.973Z,17.36
2017-03-01T03:48:34.797Z,17.48
2017-03-01T03:49:15.485Z,17.36
2017-03-01T03:51:05.417Z,17.34
2017-03-01T03:51:46.117Z,17.43
2017-03-01T03:52:26.891Z,17.34
2017-03-01T03:53:07.821Z,17.37
2017-03-01T03:53:48.619Z,17.38
2017-03-01T03:54:29.321Z,17.41
2017-03-01T03:55:10.108Z,17.34
2017-03-01T03:55:51.665Z,17.34
2017-03-01T03:56:32.451Z,17.48
2017-03-01T03:57:13.259Z,17.36
2017-03-01T03:57:54.021Z,17.49
2017-03-01T03:58:34.842Z,17.4
2017-03-01T03:59:15.597Z,17.41
2017-03-01T03:59:56.342Z,17.4
2017-03-01T04:00:37.088Z,17.4
2017-03-01T04:02:53.849Z,17.46
2017-03-01T04:03:34.571Z,17.38
2017-03-01T04:04:15.332Z,17.33
2017-03-01T04:04:56.078Z,17.36
2017-03-01T04:05:36.789Z,17.51
2017-03-01T04:06:17.479Z,17.49
2017-03-01T04:06:58.190Z,17.44
2017-03-01T04:07:39.936Z,17.41
2017-03-01T04:08:20.622Z,17.4
2017-03-01T04:09:01.341Z,17.44
2017-03-01T04:09:42.166Z,17.46
2017-03-01T04:10:22.911Z,17.44
2017-03-01T04:11:03.687Z,17.34
2017-03-01T04:11:45.260Z,17.37
2017-03-01T04:12:25.994Z,17.44
2017-03-01T04:13:06.709Z,17.48
2017-03-01T04:13:47.371Z,17.34
2017-03-01T04:14:28.228Z,17.41
2017-03-01T04:15:08.897Z,17.41
2017-03-01T04:15:49.585Z,17.46
2017-03-01T04:16:31.274Z,17.46
2017-03-01T04:17:12.050Z,17.43
2017-03-01T04:17:52.829Z,17.44
2017-03-01T04:18:34.290Z,17.41
2017-03-01T04:19:14.978Z,17.4
2017-03-01T04:19:55.820Z,17.38
2017-03-01T04:20:36.509Z,17.43
2017-03-01T04:21:18.249Z,17.4
2017-03-01T04:21:58.968Z,17.49
2017-03-01T04:22:39.681Z,17.4
2017-03-01T04:23:20.458Z,17.43
2017-03-01T04:24:01.250Z,17.4
2017-03-01T04:24:42.017Z,17.43
2017-03-01T04:25:22.833Z,17.38
2017-03-01T04:26:03.578Z,17.44
2017-03-01T04:26:44.427Z,17.41
2017-03-01T04:27:25.141Z,17.38
2017-03-01T04:28:05.978Z,17.4
2017-03-01T04:28:46.720Z,17.4
2017-03-01T04:29:27.463Z,17.46
2017-03-01T04:30:08.270Z,17.44
2017-03-01T04:30:49.012Z,17.43
2017-03-01T04:31:29.767Z,17.38
2017-03-01T04:32:17.131Z,17.34
2017-03-01T04:32:57.927Z,17.43
2017-03-01T04:33:38.684Z,17.37
2017-03-01T04:34:19.457Z,17.4
2017-03-01T04:35:00.179Z,17.4
2017-03-01T04:35:40.988Z,17.36
2017-03-01T04:36:21.696Z,17.36
2017-03-01T04:37:02.493Z,17.41
2017-03-01T04:37:43.231Z,17.37
2017-03-01T04:38:24.576Z,17.36
2017-03-01T04:39:05.336Z,17.37
2017-03-01T04:39:46.171Z,17.34
2017-03-01T04:40:26.931Z,17.33
2017-03-01T04:41:07.667Z,17.4
2017-03-01T04:41:48.453Z,17.41
2017-03-01T04:42:29.223Z,17.37
2017-03-01T04:43:09.949Z,17.33
2017-03-01T04:43:50.681Z,17.4
2017-03-01T04:44:32.144Z,17.33
2017-03-01T04:45:12.171Z,17.34
2017-03-01T04:45:53.802Z,17.33
2017-03-01T04:46:35.186Z,17.4
2017-03-01T04:47:18.573Z,17.33
2017-03-01T04:47:59.285Z,17.31
2017-03-01T04:48:40.129Z,17.36
2017-03-01T04:49:20.975Z,17.36
2017-03-01T04:50:01.735Z,17.33
2017-03-01T04:50:42.440Z,17.4
2017-03-01T04:51:23.148Z,17.33
2017-03-01T04:52:03.973Z,17.34
2017-03-01T04:52:44.699Z,17.36
2017-03-01T04:53:25.380Z,17.34
2017-03-01T04:54:06.174Z,17.31
2017-03-01T04:54:46.885Z,17.34
2017-03-01T04:55:27.629Z,17.31
2017-03-01T04:56:08.380Z,17.34
2017-03-01T04:56:49.272Z,17.31
2017-03-01T04:57:30.651Z,17.31
2017-03-01T04:58:10.636Z,17.33
2017-03-01T04:58:51.427Z,17.31
2017-03-01T04:59:32.232Z,17.31
2017-03-01T05:00:12.940Z,17.33
2017-03-01T05:00:53.691Z,17.25
2017-03-01T05:01:34.483Z,17.22
2017-03-01T05:02:29.959Z,17.31
2017-03-01T05:03:10.692Z,17.3
2017-03-01T05:03:51.423Z,17.3
2017-03-01T05:04:32.260Z,17.25
2017-03-01T05:05:13.656Z,17.3
2017-03-01T05:05:53.817Z,17.22
2017-03-01T05:06:34.571Z,17.33
2017-03-01T05:07:15.312Z,17.3
2017-03-01T05:07:56.047Z,17.37
2017-03-01T05:08:36.761Z,17.4
2017-03-01T05:09:17.519Z,17.43
2017-03-01T05:09:58.266Z,17.4
2017-03-01T05:10:39.910Z,17.4
2017-03-01T05:11:20.637Z,17.31
2017-03-01T05:12:01.300Z,17.33
2017-03-01T05:12:42.134Z,17.31
2017-03-01T05:13:22.925Z,17.33
2017-03-01T05:14:03.652Z,17.34
2017-03-01T05:14:44.386Z,17.36
2017-03-01T05:15:25.081Z,17.33
2017-03-01T05:16:05.872Z,17.34
2017-03-01T05:16:46.641Z,17.33
2017-03-01T05:17:27.395Z,17.31
2017-03-01T05:18:08.237Z,17.37
2017-03-01T05:18:49.022Z,17.31
2017-03-01T05:19:29.752Z,17.3
2017-03-01T05:20:10.555Z,17.31
2017-03-01T05:20:51.266Z,17.31
2017-03-01T05:21:32.037Z,17.25
2017-03-01T05:22:12.803Z,17.28
2017-03-01T05:22:53.626Z,17.26
2017-03-01T05:23:34.337Z,17.31
2017-03-01T05:24:15.137Z,17.34
2017-03-01T05:24:55.853Z,17.31
2017-03-01T05:25:36.581Z,17.25
2017-03-01T05:26:18.395Z,17.31
2017-03-01T05:26:59.131Z,17.28
2017-03-01T05:27:39.887Z,17.22
2017-03-01T05:28:20.575Z,17.33
2017-03-01T05:29:01.336Z,17.23
2017-03-01T05:29:42.091Z,17.3
2017-03-01T05:30:22.967Z,17.3
2017-03-01T05:31:03.729Z,17.19
2017-03-01T05:31:44.448Z,17.28
2017-03-01T05:32:25.130Z,17.25
2017-03-01T05:33:05.884Z,17.21
2017-03-01T05:33:46.656Z,17.21
2017-03-01T05:34:27.398Z,17.25
2017-03-01T05:35:08.139Z,17.23
2017-03-01T05:37:23.630Z,17.28
2017-03-01T05:38:04.498Z,17.23
2017-03-01T05:38:45.192Z,17.33
2017-03-01T05:39:25.982Z,17.3
2017-03-01T05:40:06.763Z,17.21
2017-03-01T05:40:47.522Z,17.26
2017-03-01T05:41:28.263Z,17.19
2017-03-01T05:42:09.027Z,17.21
2017-03-01T05:42:49.736Z,17.21
2017-03-01T05:43:31.246Z,17.23
2017-03-01T05:44:12.003Z,17.22
2017-03-01T05:44:52.730Z,17.22
2017-03-01T05:45:33.536Z,17.23
2017-03-01T05:46:14.329Z,17.21
2017-03-01T05:46:55.101Z,17.19
2017-03-01T05:47:35.750Z,17.23
2017-03-01T05:48:16.443Z,17.22
2017-03-01T05:48:57.193Z,17.21
2017-03-01T05:49:37.979Z,17.21
2017-03-01T05:50:18.727Z,17.19
2017-03-01T05:50:59.477Z,17.15
2017-03-01T05:51:40.300Z,17.22
2017-03-01T05:52:21.048Z,17.15
2017-03-01T05:53:01.767Z,17.22
2017-03-01T05:53:42.487Z,17.25
2017-03-01T05:54:23.298Z,17.21
2017-03-01T05:55:04.106Z,17.18
2017-03-01T05:55:44.891Z,17.22
2017-03-01T05:56:26.252Z,17.18
2017-03-01T05:57:06.367Z,17.19
2017-03-01T05:57:47.095Z,17.25
2017-03-01T05:58:27.878Z,17.21
2017-03-01T05:59:08.723Z,17.26
2017-03-01T05:59:49.535Z,17.19
2017-03-01T06:00:30.277Z,17.19
2017-03-01T06:01:19.253Z,17.22
2017-03-01T06:02:30.580Z,17.19
2017-03-01T06:03:11.324Z,17.19
2017-03-01T06:03:52.080Z,17.25
2017-03-01T08:15:10.022Z,18.17
2017-03-01T08:15:50.749Z,18.21
2017-03-01T08:16:31.528Z,18.29
2017-03-01T08:17:12.288Z,18.35
2017-03-01T08:17:53.096Z,18.35
2017-03-01T08:18:33.883Z,18.37
2017-03-01T08:19:14.796Z,18.45
2017-03-01T08:19:55.480Z,18.44
2017-03-01T08:20:36.231Z,18.45
2017-03-01T08:21:17.440Z,18.42
2017-03-01T08:21:58.180Z,18.47
2017-03-01T08:22:38.945Z,18.47
2017-03-01T08:23:19.717Z,18.5
2017-03-01T08:24:00.425Z,18.48
2017-03-01T08:24:41.134Z,18.51
2017-03-01T08:25:22.084Z,18.55
2017-03-01T08:26:02.795Z,18.5
2017-03-01T08:26:43.615Z,18.48
2017-03-01T08:27:24.327Z,18.51
2017-03-01T08:28:05.081Z,18.6
2017-03-01T08:28:45.819Z,18.51
2017-03-01T08:29:26.551Z,18.58
2017-03-01T08:30:07.290Z,18.58
2017-03-01T08:30:48.106Z,18.57
2017-03-01T08:31:28.846Z,18.55
2017-03-01T08:32:09.600Z,18.66
2017-03-01T08:32:50.396Z,18.62
2017-03-01T08:33:31.234Z,18.6
2017-03-01T08:34:12.097Z,18.66
2017-03-01T08:34:52.805Z,18.65
2017-03-01T08:35:33.551Z,18.62
2017-03-01T08:36:14.263Z,18.72
2017-03-01T08:36:55.027Z,18.7
2017-03-01T08:37:35.862Z,18.67
2017-03-01T08:38:16.590Z,18.69
2017-03-01T08:38:57.405Z,18.67
2017-03-01T08:39:38.167Z,18.75
2017-03-01T08:40:18.920Z,18.76
2017-03-01T08:41:00.122Z,18.78
2017-03-01T08:41:56.467Z,18.73
2017-03-01T08:42:38.222Z,18.73
2017-03-01T08:43:19.011Z,18.8
2017-03-01T08:44:02.636Z,18.76
2017-03-01T08:44:43.384Z,18.73
2017-03-01T08:45:24.092Z,18.7
2017-03-01T08:46:05.043Z,18.78
2017-03-01T08:46:46.311Z,18.82
2017-03-01T08:47:29.617Z,18.82
2017-03-01T08:48:10.398Z,18.84
2017-03-01T08:48:51.233Z,18.82
2017-03-01T08:49:49.757Z,18.8
2017-03-01T08:50:37.336Z,18.8
2017-03-01T08:51:21.824Z,18.87
2017-03-01T08:52:02.688Z,18.91
2017-03-01T08:52:43.438Z,18.95
2017-03-01T08:53:24.199Z,18.95
2017-03-01T08:54:04.914Z,18.94
2017-03-01T08:54:45.740Z,18.98
2017-03-01T08:55:26.466Z,19.02
2017-03-01T08:56:07.208Z,19.02
2017-03-01T08:56:48.000Z,18.92
2017-03-01T20:44:41.544Z,18.08
2017-03-01T20:45:22.248Z,18.02
2017-03-01T20:46:03.061Z,17.96
2017-03-01T20:48:13.586Z,18.05
2017-03-01T20:50:05.288Z,18.02
2017-03-01T20:50:52.050Z,17.95
2017-03-01T20:51:32.774Z,17.96
2017-03-01T20:52:13.576Z,18.07
2017-03-01T20:52:54.330Z,18
2017-03-01T20:53:35.009Z,17.99
2017-03-01T20:54:15.949Z,18.05
2017-03-01T21:01:51.520Z,17.93
2017-03-01T21:02:32.756Z,17.99
2017-03-01T21:03:13.320Z,18.05
2017-03-01T21:03:54.111Z,17.96
2017-03-01T21:04:34.867Z,17.99
2017-03-01T21:05:15.630Z,17.97
2017-03-01T21:05:56.483Z,18.02
2017-03-01T21:06:37.851Z,17.99
2017-03-01T21:07:18.019Z,18.03
2017-03-01T21:07:58.791Z,17.95
2017-03-01T21:08:39.595Z,18
2017-03-01T21:09:20.287Z,18
2017-03-01T21:10:01.053Z,17.99
2017-03-01T21:10:41.744Z,18
2017-03-01T21:11:22.497Z,18.07
2017-03-01T21:12:04.046Z,18.02
2017-03-01T21:12:44.794Z,18.08
2017-03-01T21:13:26.367Z,18
2017-03-01T21:14:08.025Z,18.03
2017-03-01T21:14:49.460Z,18.12
2017-03-01T21:15:30.346Z,18.1
2017-03-01T21:16:12.016Z,18.14
2017-03-01T21:16:52.747Z,18.11
2017-03-01T21:17:34.369Z,18.12
2017-03-01T21:18:16.076Z,18.1
2017-03-01T21:18:56.841Z,18.07
2017-03-01T21:19:39.051Z,18.12
2017-03-01T21:20:20.023Z,18.1
2017-03-01T21:21:00.844Z,18.2
2017-03-01T21:21:42.357Z,18.17
2017-03-01T21:22:24.045Z,18.12
2017-03-01T21:23:04.834Z,18.11
2017-03-01T21:23:46.616Z,18.18
2017-03-01T21:24:28.027Z,18.15
2017-03-01T21:25:08.740Z,18.17
2017-03-01T21:25:50.377Z,18.21
2017-03-01T21:26:32.077Z,18.17
2017-03-01T21:27:13.037Z,18.11
2017-03-01T21:27:54.543Z,18.21
2017-03-01T21:28:36.034Z,18.21
2017-03-01T21:29:16.887Z,18.23
2017-03-01T21:29:58.418Z,18.2
2017-03-01T21:30:40.757Z,18.2
2017-03-01T21:31:21.532Z,18.21
2017-03-01T21:32:02.327Z,18.18
2017-03-01T21:32:44.053Z,18.12
2017-03-01T21:33:24.778Z,18.25
2017-03-01T21:34:06.435Z,18.27
2017-03-01T21:34:48.303Z,18.17
2017-03-01T21:35:29.404Z,18.2
2017-03-01T21:36:10.438Z,18.27
2017-03-01T21:36:52.528Z,18.27
2017-03-01T21:37:33.459Z,18.17
2017-03-01T21:38:14.339Z,18.21
2017-03-01T21:38:57.242Z,18.11
2017-03-01T21:39:37.920Z,18.1
2017-03-01T21:40:18.785Z,18.14
2017-03-01T21:41:00.084Z,18.12
2017-03-01T21:41:41.060Z,18.14
2017-03-01T21:42:22.378Z,18.23
2017-03-01T21:43:04.067Z,18.26
2017-03-01T21:43:44.888Z,18.32
2017-03-01T21:44:26.414Z,18.32
2017-03-01T21:45:08.100Z,18.18
2017-03-01T21:45:48.922Z,18.26
2017-03-01T21:46:31.211Z,18.25
2017-03-01T21:47:12.050Z,18.23
2017-03-01T21:47:53.176Z,18.15
2017-03-01T21:48:34.521Z,18.12
2017-03-01T21:49:31.396Z,18.1
2017-03-01T21:50:12.685Z,18.12
2017-03-01T21:50:53.795Z,18.11
2017-03-01T21:51:35.300Z,18.14
2017-03-01T21:52:16.139Z,18.15
2017-03-01T21:52:58.020Z,18.1
2017-03-01T21:53:39.260Z,18.1
2017-03-01T21:54:20.136Z,18.05
2017-03-01T21:55:01.684Z,18.1
2017-03-01T21:55:43.263Z,18.1
2017-03-01T21:56:26.882Z,18.14
2017-03-01T21:57:08.397Z,18.11
2017-03-01T21:57:49.601Z,18.1
2017-03-01T21:58:30.720Z,18.03
2017-03-01T21:59:12.043Z,18.03
2017-03-01T21:59:52.865Z,18.05
2017-03-01T22:00:33.730Z,18.12
2017-03-01T22:01:16.818Z,18.08
2017-03-01T22:01:57.796Z,18.07
2017-03-01T22:02:38.664Z,18.14
2017-03-01T22:03:20.400Z,18.08
2017-03-01T22:04:00.437Z,18.07
2017-03-01T22:04:41.179Z,18.03
2017-03-01T22:05:22.056Z,18.11
2017-03-01T22:06:03.320Z,18.11
2017-03-01T22:06:44.888Z,18.03
2017-03-01T22:07:25.828Z,18.12
2017-03-01T22:08:07.392Z,18.03
2017-03-01T22:08:48.615Z,18.03
2017-03-01T22:09:30.552Z,18.08
2017-03-01T22:10:13.151Z,18.07
2017-03-01T22:10:54.706Z,18.02
2017-03-01T22:11:35.644Z,18.11
2017-03-01T22:12:16.477Z,18.07
2017-03-01T22:12:57.799Z,18.1
2017-03-01T22:13:39.049Z,18.02
2017-03-01T22:14:20.136Z,18.1
2017-03-01T22:15:01.745Z,18.02
2017-03-01T22:15:42.658Z,17.97
2017-03-01T22:16:23.679Z,18.08
2017-03-01T22:17:04.509Z,18.08
2017-03-01T22:17:45.668Z,18.05
2017-03-01T22:18:28.106Z,18
2017-03-01T22:19:08.929Z,18.1
2017-03-01T22:19:49.729Z,18.03
2017-03-01T22:20:31.284Z,18.03
2017-03-01T22:21:12.588Z,18.08
2017-03-01T22:21:53.697Z,18
2017-03-01T22:22:35.278Z,18
2017-03-01T22:23:16.094Z,18.02
2017-03-01T22:23:57.752Z,18.03
2017-03-01T22:24:39.280Z,18.05
2017-03-01T22:25:20.065Z,17.93
2017-03-01T22:26:01.797Z,18.02
2017-03-01T22:26:43.295Z,18.03
2017-03-01T22:27:24.022Z,18.05
2017-03-01T22:28:05.724Z,18.07
2017-03-01T22:28:47.271Z,17.95
2017-03-01T22:29:28.009Z,18.03
2017-03-01T22:30:09.689Z,18.17
2017-03-01T22:30:51.280Z,18.17
2017-03-01T22:31:32.036Z,18.11
2017-03-01T22:32:13.737Z,18.15
2017-03-01T22:32:55.277Z,18.14
2017-03-01T22:33:36.104Z,18.07
2017-03-01T22:34:17.714Z,18.11
2017-03-01T22:34:59.253Z,18.02
2017-03-01T22:35:40.004Z,18.03
2017-03-01T22:36:21.706Z,18.1
2017-03-01T22:37:03.278Z,18.03
2017-03-01T22:37:43.943Z,18.08
2017-03-01T22:38:25.683Z,18.14
2017-03-01T22:39:07.316Z,18.08
2017-03-01T22:39:48.041Z,18.07
2017-03-01T22:40:29.650Z,18.11
2017-03-01T22:41:11.274Z,18.02
2017-03-01T22:41:52.085Z,18.03
2017-03-01T22:42:33.767Z,18.1
2017-03-01T22:43:15.273Z,18.03
2017-03-01T22:43:56.026Z,18.05
2017-03-01T22:44:37.756Z,18.07
2017-03-01T22:45:19.259Z,17.99
2017-03-01T22:46:00.071Z,18
2017-03-01T22:46:41.692Z,18.05
2017-03-01T22:47:23.330Z,18
2017-03-01T22:48:04.109Z,18
2017-03-01T22:48:45.698Z,18.03
2017-03-01T22:49:27.276Z,17.96
2017-03-01T22:50:07.991Z,18.11
2017-03-01T22:50:49.719Z,17.95
2017-03-01T22:51:31.295Z,17.99
2017-03-01T22:52:12.087Z,18.08
2017-03-01T22:52:53.720Z,17.99
2017-03-01T22:53:35.322Z,17.95
2017-03-01T22:54:16.076Z,18.07
2017-03-01T22:54:57.709Z,18.03
2017-03-01T22:55:39.263Z,18
2017-03-01T22:56:20.011Z,17.96
2017-03-01T22:57:03.680Z,17.99
2017-03-01T22:57:44.356Z,18.08
2017-03-01T22:58:25.118Z,17.96
2017-03-01T22:59:05.890Z,17.97
2017-03-01T22:59:47.288Z,17.96
2017-03-01T23:00:28.009Z,17.99
2017-03-01T23:01:09.751Z,17.97
2017-03-01T23:01:51.318Z,18
2017-03-01T23:02:32.702Z,17.96
2017-03-01T23:03:13.715Z,18.07
2017-03-01T23:03:55.348Z,18.05
2017-03-01T23:04:36.066Z,17.95
2017-03-01T23:05:17.710Z,18
2017-03-01T23:05:59.314Z,17.96
2017-03-01T23:06:40.048Z,17.95
2017-03-01T23:07:21.782Z,18.02
2017-03-01T23:08:03.290Z,17.96
2017-03-01T23:08:43.985Z,18